sensor_id;sensor_type;location;lat;lon;timestamp;temperature;humidity
26336;DHT22;14047;50.936;4.654;2023-05-29T00:00:31;14.60;99.90
26336;DHT22;14047;50.936;4.654;2023-05-29T00:02:58;14.60;99.90
26336;DHT22;14047;50.936;4.654;2023-05-29T00:05:29;14.60;99.90
26336;DHT22;14047;50.936;4.654;2023-05-29T00:07:56;14.60;99.90
26336;DHT22;14047;50.936;4.654;2023-05-29T00:10:22;14.50;99.90
26336;DHT22;14047;50.936;4.654;2023-05-29T00:12:48;14.50;99.90
26336;DHT22;14047;50.936;4.654;2023-05-29T00:15:14;14.40;99.90
26336;DHT22;14047;50.936;4.654;2023-05-29T00:17:40;14.40;99.90
26336;DHT22;14047;50.936;4.654;2023-05-29T00:20:06;14.40;99.90
26336;DHT22;14047;50.936;4.654;2023-05-29T00:22:36;14.20;99.90
26336;DHT22;14047;50.936;4.654;2023-05-29T00:25:06;14.10;99.90
26336;DHT22;14047;50.936;4.654;2023-05-29T00:27:32;13.90;99.90
26336;DHT22;14047;50.936;4.654;2023-05-29T00:29:59;13.90;99.90
26336;DHT22;14047;50.936;4.654;2023-05-29T00:32:25;13.90;99.90
26336;DHT22;14047;50.936;4.654;2023-05-29T00:34:51;13.80;99.90
26336;DHT22;14047;50.936;4.654;2023-05-29T00:37:17;13.90;99.90
26336;DHT22;14047;50.936;4.654;2023-05-29T00:39:43;14.10;99.90
26336;DHT22;14047;50.936;4.654;2023-05-29T00:42:09;14.00;99.90
26336;DHT22;14047;50.936;4.654;2023-05-29T00:44:36;13.90;99.90
26336;DHT22;14047;50.936;4.654;2023-05-29T00:47:02;14.00;99.90
26336;DHT22;14047;50.936;4.654;2023-05-29T00:49:28;13.80;99.90
26336;DHT22;14047;50.936;4.654;2023-05-29T00:51:54;13.80;99.90
26336;DHT22;14047;50.936;4.654;2023-05-29T00:54:25;13.70;99.90
26336;DHT22;14047;50.936;4.654;2023-05-29T00:56:52;13.70;99.90
26336;DHT22;14047;50.936;4.654;2023-05-29T00:59:19;13.60;99.90
26336;DHT22;14047;50.936;4.654;2023-05-29T01:01:49;13.50;99.90
26336;DHT22;14047;50.936;4.654;2023-05-29T01:04:16;13.50;99.90
26336;DHT22;14047;50.936;4.654;2023-05-29T01:06:43;13.50;99.90
26336;DHT22;14047;50.936;4.654;2023-05-29T01:09:10;13.30;99.90
26336;DHT22;14047;50.936;4.654;2023-05-29T01:14:55;13.20;99.90
26336;DHT22;14047;50.936;4.654;2023-05-29T01:28:19;13.20;99.90
26336;DHT22;14047;50.936;4.654;2023-05-29T01:30:48;13.00;99.90
26336;DHT22;14047;50.936;4.654;2023-05-29T01:33:16;12.80;99.90
26336;DHT22;14047;50.936;4.654;2023-05-29T01:35:42;12.80;99.90
26336;DHT22;14047;50.936;4.654;2023-05-29T01:38:09;12.90;99.90
26336;DHT22;14047;50.936;4.654;2023-05-29T01:40:36;12.80;99.90
26336;DHT22;14047;50.936;4.654;2023-05-29T01:43:02;12.80;99.90
26336;DHT22;14047;50.936;4.654;2023-05-29T01:45:28;12.90;99.90
26336;DHT22;14047;50.936;4.654;2023-05-29T01:47:55;12.80;99.90
26336;DHT22;14047;50.936;4.654;2023-05-29T01:50:23;12.70;99.90
26336;DHT22;14047;50.936;4.654;2023-05-29T01:52:50;12.70;99.90
26336;DHT22;14047;50.936;4.654;2023-05-29T01:55:16;12.70;99.90
26336;DHT22;14047;50.936;4.654;2023-05-29T01:57:43;12.90;99.90
26336;DHT22;14047;50.936;4.654;2023-05-29T02:00:10;12.90;99.90
26336;DHT22;14047;50.936;4.654;2023-05-29T02:02:42;12.80;99.90
26336;DHT22;14047;50.936;4.654;2023-05-29T02:05:08;12.70;99.90
26336;DHT22;14047;50.936;4.654;2023-05-29T02:07:35;12.60;99.90
26336;DHT22;14047;50.936;4.654;2023-05-29T02:10:05;12.60;99.90
26336;DHT22;14047;50.936;4.654;2023-05-29T02:12:31;12.70;99.90
26336;DHT22;14047;50.936;4.654;2023-05-29T02:14:58;12.60;99.90
26336;DHT22;14047;50.936;4.654;2023-05-29T02:17:24;12.50;99.90
26336;DHT22;14047;50.936;4.654;2023-05-29T02:19:51;12.40;99.90
26336;DHT22;14047;50.936;4.654;2023-05-29T02:22:17;12.20;99.90
26336;DHT22;14047;50.936;4.654;2023-05-29T02:24:43;12.40;99.90
26336;DHT22;14047;50.936;4.654;2023-05-29T02:27:09;12.40;99.90
26336;DHT22;14047;50.936;4.654;2023-05-29T02:29:35;12.40;99.90
26336;DHT22;14047;50.936;4.654;2023-05-29T02:32:01;12.30;99.90
26336;DHT22;14047;50.936;4.654;2023-05-29T02:34:27;12.30;99.90
26336;DHT22;14047;50.936;4.654;2023-05-29T02:36:53;12.20;99.90
26336;DHT22;14047;50.936;4.654;2023-05-29T02:39:20;12.00;99.90
26336;DHT22;14047;50.936;4.654;2023-05-29T02:41:46;11.90;99.90
26336;DHT22;14047;50.936;4.654;2023-05-29T02:44:13;11.80;99.90
26336;DHT22;14047;50.936;4.654;2023-05-29T02:46:38;11.70;99.90
26336;DHT22;14047;50.936;4.654;2023-05-29T02:49:04;11.70;99.90
26336;DHT22;14047;50.936;4.654;2023-05-29T02:51:30;11.70;99.90
26336;DHT22;14047;50.936;4.654;2023-05-29T02:53:58;11.60;99.90
26336;DHT22;14047;50.936;4.654;2023-05-29T02:56:24;11.50;99.90
26336;DHT22;14047;50.936;4.654;2023-05-29T02:58:50;11.50;99.90
26336;DHT22;14047;50.936;4.654;2023-05-29T03:01:17;11.50;99.90
26336;DHT22;14047;50.936;4.654;2023-05-29T03:03:43;11.30;99.90
26336;DHT22;14047;50.936;4.654;2023-05-29T03:06:09;11.30;99.90
26336;DHT22;14047;50.936;4.654;2023-05-29T03:08:39;11.30;99.90
26336;DHT22;14047;50.936;4.654;2023-05-29T03:11:07;11.30;99.90
26336;DHT22;14047;50.936;4.654;2023-05-29T03:13:37;11.30;99.90
26336;DHT22;14047;50.936;4.654;2023-05-29T03:16:07;11.20;99.90
26336;DHT22;14047;50.936;4.654;2023-05-29T03:18:35;11.30;99.90
26336;DHT22;14047;50.936;4.654;2023-05-29T03:21:01;11.40;99.90
26336;DHT22;14047;50.936;4.654;2023-05-29T03:23:29;11.20;99.90
26336;DHT22;14047;50.936;4.654;2023-05-29T03:25:55;11.20;99.90
26336;DHT22;14047;50.936;4.654;2023-05-29T03:28:21;11.20;99.90
26336;DHT22;14047;50.936;4.654;2023-05-29T03:30:48;11.30;99.90
26336;DHT22;14047;50.936;4.654;2023-05-29T03:33:17;11.30;99.90
26336;DHT22;14047;50.936;4.654;2023-05-29T03:35:58;11.20;99.90
26336;DHT22;14047;50.936;4.654;2023-05-29T03:38:25;11.00;99.90
26336;DHT22;14047;50.936;4.654;2023-05-29T03:40:55;10.90;99.90
26336;DHT22;14047;50.936;4.654;2023-05-29T03:43:20;10.90;99.90
26336;DHT22;14047;50.936;4.654;2023-05-29T03:45:47;10.90;99.90
26336;DHT22;14047;50.936;4.654;2023-05-29T03:48:13;10.90;99.90
26336;DHT22;14047;50.936;4.654;2023-05-29T03:50:42;10.90;99.90
26336;DHT22;14047;50.936;4.654;2023-05-29T03:53:08;10.90;99.90
26336;DHT22;14047;50.936;4.654;2023-05-29T03:55:34;10.90;99.90
26336;DHT22;14047;50.936;4.654;2023-05-29T03:58:02;10.90;99.90
26336;DHT22;14047;50.936;4.654;2023-05-29T04:00:29;11.00;99.90
26336;DHT22;14047;50.936;4.654;2023-05-29T04:02:59;11.00;99.90
26336;DHT22;14047;50.936;4.654;2023-05-29T04:05:25;11.10;99.90
26336;DHT22;14047;50.936;4.654;2023-05-29T04:07:52;11.10;99.90
26336;DHT22;14047;50.936;4.654;2023-05-29T04:10:18;11.20;99.90
26336;DHT22;14047;50.936;4.654;2023-05-29T04:12:44;11.30;99.90
26336;DHT22;14047;50.936;4.654;2023-05-29T04:15:10;11.30;99.90
26336;DHT22;14047;50.936;4.654;2023-05-29T04:17:36;11.30;99.90
26336;DHT22;14047;50.936;4.654;2023-05-29T04:20:02;11.40;99.90
26336;DHT22;14047;50.936;4.654;2023-05-29T04:22:35;11.60;99.90
26336;DHT22;14047;50.936;4.654;2023-05-29T04:25:01;11.70;99.90
26336;DHT22;14047;50.936;4.654;2023-05-29T04:27:30;11.70;99.90
26336;DHT22;14047;50.936;4.654;2023-05-29T04:29:58;11.70;99.90
26336;DHT22;14047;50.936;4.654;2023-05-29T04:32:30;11.70;99.90
26336;DHT22;14047;50.936;4.654;2023-05-29T04:34:56;11.60;99.90
26336;DHT22;14047;50.936;4.654;2023-05-29T04:37:23;11.50;99.90
26336;DHT22;14047;50.936;4.654;2023-05-29T04:39:58;11.40;99.90
26336;DHT22;14047;50.936;4.654;2023-05-29T04:42:30;11.50;99.90
26336;DHT22;14047;50.936;4.654;2023-05-29T04:44:59;11.10;99.90
26336;DHT22;14047;50.936;4.654;2023-05-29T04:47:26;11.10;99.90
26336;DHT22;14047;50.936;4.654;2023-05-29T04:49:54;11.10;99.90
26336;DHT22;14047;50.936;4.654;2023-05-29T04:52:19;11.20;99.90
26336;DHT22;14047;50.936;4.654;2023-05-29T04:54:47;11.20;99.90
26336;DHT22;14047;50.936;4.654;2023-05-29T04:57:14;11.20;99.90
26336;DHT22;14047;50.936;4.654;2023-05-29T04:59:41;11.10;99.90
26336;DHT22;14047;50.936;4.654;2023-05-29T05:02:07;11.20;99.90
26336;DHT22;14047;50.936;4.654;2023-05-29T05:04:34;11.20;99.90
26336;DHT22;14047;50.936;4.654;2023-05-29T05:07:00;11.10;99.90
26336;DHT22;14047;50.936;4.654;2023-05-29T05:09:27;11.10;99.90
26336;DHT22;14047;50.936;4.654;2023-05-29T05:11:58;11.20;99.90
26336;DHT22;14047;50.936;4.654;2023-05-29T05:14:24;11.20;99.90
26336;DHT22;14047;50.936;4.654;2023-05-29T05:16:50;11.30;99.90
26336;DHT22;14047;50.936;4.654;2023-05-29T05:19:16;11.40;99.90
26336;DHT22;14047;50.936;4.654;2023-05-29T05:21:43;11.40;99.90
26336;DHT22;14047;50.936;4.654;2023-05-29T05:24:10;11.40;99.90
26336;DHT22;14047;50.936;4.654;2023-05-29T05:26:39;11.60;99.90
26336;DHT22;14047;50.936;4.654;2023-05-29T05:29:05;11.60;99.90
26336;DHT22;14047;50.936;4.654;2023-05-29T05:31:33;11.60;99.90
26336;DHT22;14047;50.936;4.654;2023-05-29T05:33:59;11.40;99.90
26336;DHT22;14047;50.936;4.654;2023-05-29T05:36:25;11.50;99.90
26336;DHT22;14047;50.936;4.654;2023-05-29T05:38:56;11.60;99.90
26336;DHT22;14047;50.936;4.654;2023-05-29T05:41:22;11.70;99.90
26336;DHT22;14047;50.936;4.654;2023-05-29T05:43:49;11.90;99.90
26336;DHT22;14047;50.936;4.654;2023-05-29T05:46:38;11.90;99.90
26336;DHT22;14047;50.936;4.654;2023-05-29T05:49:04;12.00;99.90
26336;DHT22;14047;50.936;4.654;2023-05-29T05:51:31;12.30;99.90
26336;DHT22;14047;50.936;4.654;2023-05-29T05:53:57;12.30;99.90
26336;DHT22;14047;50.936;4.654;2023-05-29T05:56:23;12.10;99.90
26336;DHT22;14047;50.936;4.654;2023-05-29T05:58:50;11.90;99.90
26336;DHT22;14047;50.936;4.654;2023-05-29T06:01:19;12.00;99.90
26336;DHT22;14047;50.936;4.654;2023-05-29T06:03:45;12.00;99.90
26336;DHT22;14047;50.936;4.654;2023-05-29T06:06:10;12.00;99.90
26336;DHT22;14047;50.936;4.654;2023-05-29T06:08:39;11.90;99.90
26336;DHT22;14047;50.936;4.654;2023-05-29T06:11:07;12.00;99.90
26336;DHT22;14047;50.936;4.654;2023-05-29T06:13:36;12.00;99.90
26336;DHT22;14047;50.936;4.654;2023-05-29T06:16:07;12.20;99.90
26336;DHT22;14047;50.936;4.654;2023-05-29T06:18:34;12.30;99.90
26336;DHT22;14047;50.936;4.654;2023-05-29T06:21:01;12.10;99.90
26336;DHT22;14047;50.936;4.654;2023-05-29T06:23:28;12.30;99.90
26336;DHT22;14047;50.936;4.654;2023-05-29T06:25:54;12.40;99.90
26336;DHT22;14047;50.936;4.654;2023-05-29T06:28:20;12.40;99.90
26336;DHT22;14047;50.936;4.654;2023-05-29T06:30:47;12.60;99.90
26336;DHT22;14047;50.936;4.654;2023-05-29T06:33:13;12.80;99.90
26336;DHT22;14047;50.936;4.654;2023-05-29T06:35:40;12.90;99.90
26336;DHT22;14047;50.936;4.654;2023-05-29T06:38:07;13.10;99.90
26336;DHT22;14047;50.936;4.654;2023-05-29T06:40:39;13.10;99.90
26336;DHT22;14047;50.936;4.654;2023-05-29T06:43:05;13.00;99.90
26336;DHT22;14047;50.936;4.654;2023-05-29T06:45:39;13.00;99.90
26336;DHT22;14047;50.936;4.654;2023-05-29T06:48:05;13.10;99.90
26336;DHT22;14047;50.936;4.654;2023-05-29T06:50:31;13.10;99.90
26336;DHT22;14047;50.936;4.654;2023-05-29T06:53:05;13.30;99.90
26336;DHT22;14047;50.936;4.654;2023-05-29T06:55:43;13.40;99.90
26336;DHT22;14047;50.936;4.654;2023-05-29T06:58:09;13.20;99.90
26336;DHT22;14047;50.936;4.654;2023-05-29T07:00:35;13.00;99.90
26336;DHT22;14047;50.936;4.654;2023-05-29T07:03:21;13.00;99.90
26336;DHT22;14047;50.936;4.654;2023-05-29T07:05:47;13.20;99.90
26336;DHT22;14047;50.936;4.654;2023-05-29T07:08:13;13.50;99.90
26336;DHT22;14047;50.936;4.654;2023-05-29T07:10:39;13.60;99.90
26336;DHT22;14047;50.936;4.654;2023-05-29T07:13:05;13.70;99.90
26336;DHT22;14047;50.936;4.654;2023-05-29T07:15:32;13.80;99.90
26336;DHT22;14047;50.936;4.654;2023-05-29T07:17:59;13.90;99.90
26336;DHT22;14047;50.936;4.654;2023-05-29T07:20:27;14.00;99.90
26336;DHT22;14047;50.936;4.654;2023-05-29T07:22:58;13.70;99.90
26336;DHT22;14047;50.936;4.654;2023-05-29T07:25:23;13.60;99.90
26336;DHT22;14047;50.936;4.654;2023-05-29T07:27:49;13.70;99.90
26336;DHT22;14047;50.936;4.654;2023-05-29T07:30:16;13.90;99.90
26336;DHT22;14047;50.936;4.654;2023-05-29T07:32:43;14.10;99.90
26336;DHT22;14047;50.936;4.654;2023-05-29T07:35:10;13.90;99.90
26336;DHT22;14047;50.936;4.654;2023-05-29T07:37:36;13.80;99.90
26336;DHT22;14047;50.936;4.654;2023-05-29T07:40:03;13.90;99.90
26336;DHT22;14047;50.936;4.654;2023-05-29T07:43:04;13.90;99.90
26336;DHT22;14047;50.936;4.654;2023-05-29T07:45:43;14.10;99.90
26336;DHT22;14047;50.936;4.654;2023-05-29T07:48:10;14.40;99.90
26336;DHT22;14047;50.936;4.654;2023-05-29T07:50:36;14.40;99.90
26336;DHT22;14047;50.936;4.654;2023-05-29T07:53:03;14.50;99.90
26336;DHT22;14047;50.936;4.654;2023-05-29T07:55:29;14.70;99.90
26336;DHT22;14047;50.936;4.654;2023-05-29T07:57:56;14.80;99.90
26336;DHT22;14047;50.936;4.654;2023-05-29T08:00:24;14.90;99.90
26336;DHT22;14047;50.936;4.654;2023-05-29T08:02:51;15.10;99.90
26336;DHT22;14047;50.936;4.654;2023-05-29T08:05:30;15.20;99.90
26336;DHT22;14047;50.936;4.654;2023-05-29T08:08:03;15.40;99.90
26336;DHT22;14047;50.936;4.654;2023-05-29T08:10:29;15.60;99.90
26336;DHT22;14047;50.936;4.654;2023-05-29T08:12:55;15.30;99.90
26336;DHT22;14047;50.936;4.654;2023-05-29T08:15:21;15.20;99.90
26336;DHT22;14047;50.936;4.654;2023-05-29T08:17:49;14.90;99.90
26336;DHT22;14047;50.936;4.654;2023-05-29T08:20:15;14.80;99.90
26336;DHT22;14047;50.936;4.654;2023-05-29T08:22:42;14.70;99.90
26336;DHT22;14047;50.936;4.654;2023-05-29T08:25:08;14.80;99.90
26336;DHT22;14047;50.936;4.654;2023-05-29T08:27:34;15.10;99.90
26336;DHT22;14047;50.936;4.654;2023-05-29T08:30:00;15.30;99.90
26336;DHT22;14047;50.936;4.654;2023-05-29T08:32:26;15.20;99.90
26336;DHT22;14047;50.936;4.654;2023-05-29T08:34:52;15.10;99.90
26336;DHT22;14047;50.936;4.654;2023-05-29T08:37:18;14.80;99.90
26336;DHT22;14047;50.936;4.654;2023-05-29T08:39:45;14.90;99.90
26336;DHT22;14047;50.936;4.654;2023-05-29T08:44:49;15.40;99.90
26336;DHT22;14047;50.936;4.654;2023-05-29T08:47:21;15.40;99.90
26336;DHT22;14047;50.936;4.654;2023-05-29T08:49:52;15.50;99.90
26336;DHT22;14047;50.936;4.654;2023-05-29T08:52:21;15.40;99.90
26336;DHT22;14047;50.936;4.654;2023-05-29T08:54:47;15.30;99.90
26336;DHT22;14047;50.936;4.654;2023-05-29T08:57:13;15.40;99.90
26336;DHT22;14047;50.936;4.654;2023-05-29T08:59:43;15.30;99.90
26336;DHT22;14047;50.936;4.654;2023-05-29T09:02:11;15.50;99.90
26336;DHT22;14047;50.936;4.654;2023-05-29T09:04:37;15.40;99.90
26336;DHT22;14047;50.936;4.654;2023-05-29T09:07:04;15.50;99.90
26336;DHT22;14047;50.936;4.654;2023-05-29T09:09:34;15.70;99.90
26336;DHT22;14047;50.936;4.654;2023-05-29T09:12:00;15.80;99.90
26336;DHT22;14047;50.936;4.654;2023-05-29T09:14:34;16.00;99.90
26336;DHT22;14047;50.936;4.654;2023-05-29T09:17:02;16.20;99.90
26336;DHT22;14047;50.936;4.654;2023-05-29T09:19:28;16.20;99.90
26336;DHT22;14047;50.936;4.654;2023-05-29T09:22:04;16.00;99.90
26336;DHT22;14047;50.936;4.654;2023-05-29T09:24:32;16.00;99.90
26336;DHT22;14047;50.936;4.654;2023-05-29T09:26:59;16.00;99.90
26336;DHT22;14047;50.936;4.654;2023-05-29T09:29:27;16.20;99.90
26336;DHT22;14047;50.936;4.654;2023-05-29T09:31:56;16.50;99.90
26336;DHT22;14047;50.936;4.654;2023-05-29T09:34:25;16.30;99.90
26336;DHT22;14047;50.936;4.654;2023-05-29T09:37:04;16.30;99.90
26336;DHT22;14047;50.936;4.654;2023-05-29T09:39:50;16.40;99.90
26336;DHT22;14047;50.936;4.654;2023-05-29T09:42:19;16.70;99.90
26336;DHT22;14047;50.936;4.654;2023-05-29T09:44:49;16.80;99.90
26336;DHT22;14047;50.936;4.654;2023-05-29T09:47:19;16.60;99.90
26336;DHT22;14047;50.936;4.654;2023-05-29T09:49:45;16.40;99.90
26336;DHT22;14047;50.936;4.654;2023-05-29T09:52:15;16.70;99.90
26336;DHT22;14047;50.936;4.654;2023-05-29T09:54:46;16.90;99.90
26336;DHT22;14047;50.936;4.654;2023-05-29T09:57:16;17.00;99.90
26336;DHT22;14047;50.936;4.654;2023-05-29T09:59:46;17.00;99.90
26336;DHT22;14047;50.936;4.654;2023-05-29T10:02:17;17.20;99.90
26336;DHT22;14047;50.936;4.654;2023-05-29T10:04:44;17.10;99.90
26336;DHT22;14047;50.936;4.654;2023-05-29T10:07:23;17.30;99.90
26336;DHT22;14047;50.936;4.654;2023-05-29T10:09:54;17.40;99.90
26336;DHT22;14047;50.936;4.654;2023-05-29T10:12:24;17.40;99.90
26336;DHT22;14047;50.936;4.654;2023-05-29T10:14:56;17.20;99.90
26336;DHT22;14047;50.936;4.654;2023-05-29T10:17:26;16.90;99.90
26336;DHT22;14047;50.936;4.654;2023-05-29T10:19:56;16.90;99.90
26336;DHT22;14047;50.936;4.654;2023-05-29T10:22:25;17.00;99.90
26336;DHT22;14047;50.936;4.654;2023-05-29T10:24:52;17.10;99.90
26336;DHT22;14047;50.936;4.654;2023-05-29T10:27:19;17.20;99.90
26336;DHT22;14047;50.936;4.654;2023-05-29T10:29:52;17.30;99.90
26336;DHT22;14047;50.936;4.654;2023-05-29T10:33:00;17.40;99.90
26336;DHT22;14047;50.936;4.654;2023-05-29T10:38:31;17.50;99.90
26336;DHT22;14047;50.936;4.654;2023-05-29T10:43:56;17.40;99.90
26336;DHT22;14047;50.936;4.654;2023-05-29T10:49:20;17.50;99.90
26336;DHT22;14047;50.936;4.654;2023-05-29T10:51:47;17.70;99.90
26336;DHT22;14047;50.936;4.654;2023-05-29T10:54:21;17.70;99.90
26336;DHT22;14047;50.936;4.654;2023-05-29T10:56:58;17.70;99.90
26336;DHT22;14047;50.936;4.654;2023-05-29T10:59:26;18.10;99.90
26336;DHT22;14047;50.936;4.654;2023-05-29T11:01:54;18.00;99.90
26336;DHT22;14047;50.936;4.654;2023-05-29T11:06:47;18.40;99.90
26336;DHT22;14047;50.936;4.654;2023-05-29T11:09:37;18.40;99.90
26336;DHT22;14047;50.936;4.654;2023-05-29T11:17:51;19.00;99.90
26336;DHT22;14047;50.936;4.654;2023-05-29T11:20:36;18.90;99.90
26336;DHT22;14047;50.936;4.654;2023-05-29T11:23:07;18.90;99.90
26336;DHT22;14047;50.936;4.654;2023-05-29T11:25:36;19.30;99.90
26336;DHT22;14047;50.936;4.654;2023-05-29T11:28:05;19.60;99.90
26336;DHT22;14047;50.936;4.654;2023-05-29T11:30:46;19.90;99.90
26336;DHT22;14047;50.936;4.654;2023-05-29T11:33:23;19.80;99.90
26336;DHT22;14047;50.936;4.654;2023-05-29T11:35:55;19.60;99.90
26336;DHT22;14047;50.936;4.654;2023-05-29T11:38:24;19.10;99.90
26336;DHT22;14047;50.936;4.654;2023-05-29T11:40:55;19.10;99.90
26336;DHT22;14047;50.936;4.654;2023-05-29T11:43:22;19.30;99.90
26336;DHT22;14047;50.936;4.654;2023-05-29T11:45:48;19.30;99.90
26336;DHT22;14047;50.936;4.654;2023-05-29T11:48:14;19.70;99.90
26336;DHT22;14047;50.936;4.654;2023-05-29T11:50:40;19.60;99.90
26336;DHT22;14047;50.936;4.654;2023-05-29T11:53:07;19.40;99.90
26336;DHT22;14047;50.936;4.654;2023-05-29T11:55:34;19.70;99.90
26336;DHT22;14047;50.936;4.654;2023-05-29T11:58:01;19.90;99.90
26336;DHT22;14047;50.936;4.654;2023-05-29T12:00:38;19.90;99.90
26336;DHT22;14047;50.936;4.654;2023-05-29T12:03:05;19.70;99.90
26336;DHT22;14047;50.936;4.654;2023-05-29T12:05:33;20.00;99.90
26336;DHT22;14047;50.936;4.654;2023-05-29T12:08:09;20.00;99.90
26336;DHT22;14047;50.936;4.654;2023-05-29T12:10:35;19.60;99.90
26336;DHT22;14047;50.936;4.654;2023-05-29T12:13:01;19.70;99.90
26336;DHT22;14047;50.936;4.654;2023-05-29T12:15:30;19.70;99.90
26336;DHT22;14047;50.936;4.654;2023-05-29T12:17:56;20.00;99.90
26336;DHT22;14047;50.936;4.654;2023-05-29T12:20:24;20.30;99.90
26336;DHT22;14047;50.936;4.654;2023-05-29T12:22:52;20.40;99.90
26336;DHT22;14047;50.936;4.654;2023-05-29T12:25:21;20.20;99.90
26336;DHT22;14047;50.936;4.654;2023-05-29T12:27:48;20.30;99.90
26336;DHT22;14047;50.936;4.654;2023-05-29T12:32:45;19.70;99.90
26336;DHT22;14047;50.936;4.654;2023-05-29T12:35:22;19.70;99.90
26336;DHT22;14047;50.936;4.654;2023-05-29T12:37:59;20.10;99.90
26336;DHT22;14047;50.936;4.654;2023-05-29T12:40:27;20.40;99.90
26336;DHT22;14047;50.936;4.654;2023-05-29T12:43:01;20.40;99.90
26336;DHT22;14047;50.936;4.654;2023-05-29T12:45:30;20.60;99.90
26336;DHT22;14047;50.936;4.654;2023-05-29T12:47:58;20.30;99.90
26336;DHT22;14047;50.936;4.654;2023-05-29T12:50:26;20.40;99.90
26336;DHT22;14047;50.936;4.654;2023-05-29T12:55:21;20.50;99.90
26336;DHT22;14047;50.936;4.654;2023-05-29T12:57:48;21.10;99.90
26336;DHT22;14047;50.936;4.654;2023-05-29T13:00:14;21.20;99.90
26336;DHT22;14047;50.936;4.654;2023-05-29T13:02:40;20.90;99.90
26336;DHT22;14047;50.936;4.654;2023-05-29T13:05:06;21.10;99.90
26336;DHT22;14047;50.936;4.654;2023-05-29T13:07:33;21.50;99.90
26336;DHT22;14047;50.936;4.654;2023-05-29T13:09:59;22.20;99.90
26336;DHT22;14047;50.936;4.654;2023-05-29T13:12:26;22.40;99.90
26336;DHT22;14047;50.936;4.654;2023-05-29T13:14:52;22.10;99.90
26336;DHT22;14047;50.936;4.654;2023-05-29T13:17:18;21.60;99.90
26336;DHT22;14047;50.936;4.654;2023-05-29T13:19:44;21.70;99.90
26336;DHT22;14047;50.936;4.654;2023-05-29T13:22:10;21.50;99.90
26336;DHT22;14047;50.936;4.654;2023-05-29T13:24:36;21.40;99.90
26336;DHT22;14047;50.936;4.654;2023-05-29T13:27:05;21.30;99.90
26336;DHT22;14047;50.936;4.654;2023-05-29T13:29:31;21.50;99.90
26336;DHT22;14047;50.936;4.654;2023-05-29T13:31:57;21.40;99.90
26336;DHT22;14047;50.936;4.654;2023-05-29T13:34:23;20.90;99.90
26336;DHT22;14047;50.936;4.654;2023-05-29T13:36:57;21.00;99.90
26336;DHT22;14047;50.936;4.654;2023-05-29T13:39:23;21.10;99.90
26336;DHT22;14047;50.936;4.654;2023-05-29T13:41:50;21.00;99.90
26336;DHT22;14047;50.936;4.654;2023-05-29T13:44:16;20.80;99.90
26336;DHT22;14047;50.936;4.654;2023-05-29T13:46:42;21.20;99.90
26336;DHT22;14047;50.936;4.654;2023-05-29T13:49:08;21.80;99.90
26336;DHT22;14047;50.936;4.654;2023-05-29T13:51:34;22.30;99.90
26336;DHT22;14047;50.936;4.654;2023-05-29T13:54:03;22.10;99.90
26336;DHT22;14047;50.936;4.654;2023-05-29T13:56:29;22.40;99.90
26336;DHT22;14047;50.936;4.654;2023-05-29T13:58:56;21.90;99.90
26336;DHT22;14047;50.936;4.654;2023-05-29T14:01:25;22.30;99.90
26336;DHT22;14047;50.936;4.654;2023-05-29T14:03:51;22.90;99.90
26336;DHT22;14047;50.936;4.654;2023-05-29T14:06:17;23.20;99.90
26336;DHT22;14047;50.936;4.654;2023-05-29T14:08:43;22.90;99.90
26336;DHT22;14047;50.936;4.654;2023-05-29T14:11:09;22.90;99.90
26336;DHT22;14047;50.936;4.654;2023-05-29T14:13:35;23.50;99.90
26336;DHT22;14047;50.936;4.654;2023-05-29T14:16:01;22.90;99.90
26336;DHT22;14047;50.936;4.654;2023-05-29T14:18:27;23.10;99.90
26336;DHT22;14047;50.936;4.654;2023-05-29T14:20:53;23.60;99.90
26336;DHT22;14047;50.936;4.654;2023-05-29T14:23:19;23.60;99.90
26336;DHT22;14047;50.936;4.654;2023-05-29T14:25:45;24.50;99.90
26336;DHT22;14047;50.936;4.654;2023-05-29T14:28:11;23.80;99.90
26336;DHT22;14047;50.936;4.654;2023-05-29T14:30:37;23.00;99.90
26336;DHT22;14047;50.936;4.654;2023-05-29T14:33:06;22.90;99.90
26336;DHT22;14047;50.936;4.654;2023-05-29T14:35:32;22.20;99.90
26336;DHT22;14047;50.936;4.654;2023-05-29T14:37:58;21.90;99.90
26336;DHT22;14047;50.936;4.654;2023-05-29T14:40:23;21.90;99.90
26336;DHT22;14047;50.936;4.654;2023-05-29T14:42:57;21.90;99.90
26336;DHT22;14047;50.936;4.654;2023-05-29T14:45:31;21.50;99.90
26336;DHT22;14047;50.936;4.654;2023-05-29T14:47:58;21.90;99.90
26336;DHT22;14047;50.936;4.654;2023-05-29T14:50:24;21.40;99.90
26336;DHT22;14047;50.936;4.654;2023-05-29T14:52:50;21.80;99.90
26336;DHT22;14047;50.936;4.654;2023-05-29T14:55:17;22.30;99.90
26336;DHT22;14047;50.936;4.654;2023-05-29T14:57:43;22.40;99.90
26336;DHT22;14047;50.936;4.654;2023-05-29T15:00:09;22.00;99.90
26336;DHT22;14047;50.936;4.654;2023-05-29T15:02:36;21.90;99.90
26336;DHT22;14047;50.936;4.654;2023-05-29T15:05:02;22.00;99.90
26336;DHT22;14047;50.936;4.654;2023-05-29T15:07:28;22.00;99.90
26336;DHT22;14047;50.936;4.654;2023-05-29T15:09:56;21.50;99.90
26336;DHT22;14047;50.936;4.654;2023-05-29T15:12:22;20.90;99.90
26336;DHT22;14047;50.936;4.654;2023-05-29T15:14:47;20.70;99.90
26336;DHT22;14047;50.936;4.654;2023-05-29T15:17:14;20.80;99.90
26336;DHT22;14047;50.936;4.654;2023-05-29T15:19:40;21.10;99.90
26336;DHT22;14047;50.936;4.654;2023-05-29T15:22:06;21.40;99.90
26336;DHT22;14047;50.936;4.654;2023-05-29T15:24:32;21.40;99.90
26336;DHT22;14047;50.936;4.654;2023-05-29T15:26:58;21.50;99.90
26336;DHT22;14047;50.936;4.654;2023-05-29T15:29:24;21.30;99.90
26336;DHT22;14047;50.936;4.654;2023-05-29T15:31:50;20.90;99.90
26336;DHT22;14047;50.936;4.654;2023-05-29T15:34:16;20.70;99.90
26336;DHT22;14047;50.936;4.654;2023-05-29T15:36:42;21.00;99.90
26336;DHT22;14047;50.936;4.654;2023-05-29T15:39:08;21.00;99.90
26336;DHT22;14047;50.936;4.654;2023-05-29T15:41:34;20.80;99.90
26336;DHT22;14047;50.936;4.654;2023-05-29T15:44:00;20.50;99.90
26336;DHT22;14047;50.936;4.654;2023-05-29T15:46:27;20.70;99.90
26336;DHT22;14047;50.936;4.654;2023-05-29T15:48:55;20.80;99.90
26336;DHT22;14047;50.936;4.654;2023-05-29T15:51:21;20.90;99.90
26336;DHT22;14047;50.936;4.654;2023-05-29T15:53:47;20.90;99.90
26336;DHT22;14047;50.936;4.654;2023-05-29T15:56:13;20.50;99.90
26336;DHT22;14047;50.936;4.654;2023-05-29T15:58:40;20.40;99.90
26336;DHT22;14047;50.936;4.654;2023-05-29T16:01:06;20.60;99.90
26336;DHT22;14047;50.936;4.654;2023-05-29T16:03:32;20.60;99.90
26336;DHT22;14047;50.936;4.654;2023-05-29T16:05:58;20.60;99.90
26336;DHT22;14047;50.936;4.654;2023-05-29T16:08:27;20.80;99.90
26336;DHT22;14047;50.936;4.654;2023-05-29T16:10:53;21.10;99.90
26336;DHT22;14047;50.936;4.654;2023-05-29T16:13:19;20.90;99.90